sensor_id;sensor_type;location;lat;lon;timestamp;P1;durP1;ratioP1;P2;durP2;ratioP2
7957;SDS011;4024;52.172;5.378;2024-02-26T00:02:22;5.63;;;4.77;;
7957;SDS011;4024;52.172;5.378;2024-02-26T00:04:48;5.43;;;5.03;;
7957;SDS011;4024;52.172;5.378;2024-02-26T00:07:15;4.93;;;4.50;;
7957;SDS011;4024;52.172;5.378;2024-02-26T00:09:40;5.10;;;4.60;;
7957;SDS011;4024;52.172;5.378;2024-02-26T00:12:06;6.13;;;4.57;;
7957;SDS011;4024;52.172;5.378;2024-02-26T00:14:32;5.30;;;4.83;;
7957;SDS011;4024;52.172;5.378;2024-02-26T00:16:57;5.90;;;4.97;;
7957;SDS011;4024;52.172;5.378;2024-02-26T00:19:23;5.77;;;5.27;;
7957;SDS011;4024;52.172;5.378;2024-02-26T00:21:48;6.50;;;5.10;;
7957;SDS011;4024;52.172;5.378;2024-02-26T00:24:14;5.67;;;5.10;;
7957;SDS011;4024;52.172;5.378;2024-02-26T00:26:39;5.20;;;4.70;;
7957;SDS011;4024;52.172;5.378;2024-02-26T00:29:05;5.67;;;5.00;;
7957;SDS011;4024;52.172;5.378;2024-02-26T00:31:31;5.77;;;5.17;;
7957;SDS011;4024;52.172;5.378;2024-02-26T00:33:56;5.73;;;5.23;;
7957;SDS011;4024;52.172;5.378;2024-02-26T00:36:23;5.57;;;5.07;;
7957;SDS011;4024;52.172;5.378;2024-02-26T00:38:48;5.80;;;5.30;;
7957;SDS011;4024;52.172;5.378;2024-02-26T00:41:19;6.23;;;5.57;;
7957;SDS011;4024;52.172;5.378;2024-02-26T00:43:46;6.27;;;5.67;;
7957;SDS011;4024;52.172;5.378;2024-02-26T00:46:12;6.57;;;5.70;;
7957;SDS011;4024;52.172;5.378;2024-02-26T00:48:37;7.10;;;5.63;;
7957;SDS011;4024;52.172;5.378;2024-02-26T00:51:03;6.97;;;6.30;;
7957;SDS011;4024;52.172;5.378;2024-02-26T00:53:32;7.33;;;6.63;;
7957;SDS011;4024;52.172;5.378;2024-02-26T00:55:58;8.10;;;6.33;;
7957;SDS011;4024;52.172;5.378;2024-02-26T00:58:24;6.43;;;5.83;;
7957;SDS011;4024;52.172;5.378;2024-02-26T01:00:50;6.60;;;6.10;;
7957;SDS011;4024;52.172;5.378;2024-02-26T01:03:16;7.07;;;6.37;;
7957;SDS011;4024;52.172;5.378;2024-02-26T01:05:42;6.63;;;5.93;;
7957;SDS011;4024;52.172;5.378;2024-02-26T01:08:08;7.90;;;6.23;;
7957;SDS011;4024;52.172;5.378;2024-02-26T01:10:34;6.93;;;5.80;;
7957;SDS011;4024;52.172;5.378;2024-02-26T01:12:59;7.30;;;6.60;;
7957;SDS011;4024;52.172;5.378;2024-02-26T01:15:25;8.70;;;6.33;;
7957;SDS011;4024;52.172;5.378;2024-02-26T01:17:51;7.53;;;6.43;;
7957;SDS011;4024;52.172;5.378;2024-02-26T01:20:17;6.90;;;6.30;;
7957;SDS011;4024;52.172;5.378;2024-02-26T01:22:43;6.57;;;5.97;;
7957;SDS011;4024;52.172;5.378;2024-02-26T01:25:09;7.13;;;6.03;;
7957;SDS011;4024;52.172;5.378;2024-02-26T01:27:36;6.80;;;6.20;;
7957;SDS011;4024;52.172;5.378;2024-02-26T01:30:05;7.57;;;6.43;;
7957;SDS011;4024;52.172;5.378;2024-02-26T01:32:31;7.00;;;6.40;;
7957;SDS011;4024;52.172;5.378;2024-02-26T01:34:57;6.93;;;6.20;;
7957;SDS011;4024;52.172;5.378;2024-02-26T01:37:23;9.43;;;7.03;;
7957;SDS011;4024;52.172;5.378;2024-02-26T01:39:48;8.37;;;6.77;;
7957;SDS011;4024;52.172;5.378;2024-02-26T01:42:14;7.23;;;6.63;;
7957;SDS011;4024;52.172;5.378;2024-02-26T01:44:40;7.17;;;6.47;;
7957;SDS011;4024;52.172;5.378;2024-02-26T01:47:07;9.13;;;6.67;;
7957;SDS011;4024;52.172;5.378;2024-02-26T01:49:35;7.33;;;6.57;;
7957;SDS011;4024;52.172;5.378;2024-02-26T01:52:01;7.30;;;6.60;;
7957;SDS011;4024;52.172;5.378;2024-02-26T01:54:29;6.87;;;6.27;;
7957;SDS011;4024;52.172;5.378;2024-02-26T01:56:55;6.90;;;5.97;;
7957;SDS011;4024;52.172;5.378;2024-02-26T01:59:21;7.30;;;6.37;;
7957;SDS011;4024;52.172;5.378;2024-02-26T02:01:48;7.37;;;6.67;;
7957;SDS011;4024;52.172;5.378;2024-02-26T02:04:19;8.73;;;6.27;;
7957;SDS011;4024;52.172;5.378;2024-02-26T02:06:46;7.53;;;6.70;;
7957;SDS011;4024;52.172;5.378;2024-02-26T02:09:12;7.33;;;6.60;;
7957;SDS011;4024;52.172;5.378;2024-02-26T02:11:38;6.87;;;6.17;;
7957;SDS011;4024;52.172;5.378;2024-02-26T02:14:03;7.47;;;6.70;;
7957;SDS011;4024;52.172;5.378;2024-02-26T02:16:29;7.60;;;6.73;;
7957;SDS011;4024;52.172;5.378;2024-02-26T02:18:55;11.20;;;7.33;;
7957;SDS011;4024;52.172;5.378;2024-02-26T02:21:20;10.57;;;7.07;;
7957;SDS011;4024;52.172;5.378;2024-02-26T02:23:46;8.37;;;7.03;;
7957;SDS011;4024;52.172;5.378;2024-02-26T02:26:14;9.77;;;7.00;;
7957;SDS011;4024;52.172;5.378;2024-02-26T02:28:40;7.90;;;6.60;;
7957;SDS011;4024;52.172;5.378;2024-02-26T02:31:06;10.23;;;7.50;;
7957;SDS011;4024;52.172;5.378;2024-02-26T02:33:33;9.23;;;7.60;;
7957;SDS011;4024;52.172;5.378;2024-02-26T02:35:59;9.40;;;7.40;;
7957;SDS011;4024;52.172;5.378;2024-02-26T02:38:25;7.93;;;7.13;;
7957;SDS011;4024;52.172;5.378;2024-02-26T02:40:51;8.63;;;7.37;;
7957;SDS011;4024;52.172;5.378;2024-02-26T02:43:17;10.20;;;7.73;;
7957;SDS011;4024;52.172;5.378;2024-02-26T02:45:42;8.40;;;7.50;;
7957;SDS011;4024;52.172;5.378;2024-02-26T02:48:08;8.93;;;7.43;;
7957;SDS011;4024;52.172;5.378;2024-02-26T02:50:34;9.47;;;8.20;;
7957;SDS011;4024;52.172;5.378;2024-02-26T02:52:59;7.97;;;7.17;;
7957;SDS011;4024;52.172;5.378;2024-02-26T02:55:29;8.93;;;8.03;;
7957;SDS011;4024;52.172;5.378;2024-02-26T02:57:55;8.40;;;7.60;;
7957;SDS011;4024;52.172;5.378;2024-02-26T03:00:21;9.00;;;8.00;;
7957;SDS011;4024;52.172;5.378;2024-02-26T03:02:49;8.63;;;7.60;;
7957;SDS011;4024;52.172;5.378;2024-02-26T03:05:15;8.30;;;7.50;;
7957;SDS011;4024;52.172;5.378;2024-02-26T03:07:41;9.30;;;7.93;;
7957;SDS011;4024;52.172;5.378;2024-02-26T03:10:06;9.80;;;8.63;;
7957;SDS011;4024;52.172;5.378;2024-02-26T03:12:33;10.13;;;8.23;;
7957;SDS011;4024;52.172;5.378;2024-02-26T03:14:59;9.57;;;8.30;;
7957;SDS011;4024;52.172;5.378;2024-02-26T03:17:28;9.20;;;8.30;;
7957;SDS011;4024;52.172;5.378;2024-02-26T03:19:54;11.43;;;8.70;;
7957;SDS011;4024;52.172;5.378;2024-02-26T03:22:20;9.77;;;8.77;;
7957;SDS011;4024;52.172;5.378;2024-02-26T03:24:46;11.27;;;8.80;;
7957;SDS011;4024;52.172;5.378;2024-02-26T03:27:12;10.63;;;9.17;;
7957;SDS011;4024;52.172;5.378;2024-02-26T03:29:38;9.43;;;8.30;;
7957;SDS011;4024;52.172;5.378;2024-02-26T03:32:04;9.57;;;8.23;;
7957;SDS011;4024;52.172;5.378;2024-02-26T03:34:30;10.63;;;8.70;;
7957;SDS011;4024;52.172;5.378;2024-02-26T03:36:59;11.23;;;8.97;;
7957;SDS011;4024;52.172;5.378;2024-02-26T03:39:25;10.13;;;9.10;;
7957;SDS011;4024;52.172;5.378;2024-02-26T03:41:50;10.50;;;8.37;;
7957;SDS011;4024;52.172;5.378;2024-02-26T03:44:16;10.87;;;8.97;;
7957;SDS011;4024;52.172;5.378;2024-02-26T03:46:41;10.47;;;9.10;;
7957;SDS011;4024;52.172;5.378;2024-02-26T03:49:10;10.00;;;8.97;;
7957;SDS011;4024;52.172;5.378;2024-02-26T03:51:36;11.43;;;9.10;;
7957;SDS011;4024;52.172;5.378;2024-02-26T03:54:03;9.87;;;8.83;;
7957;SDS011;4024;52.172;5.378;2024-02-26T03:56:29;10.53;;;8.87;;
7957;SDS011;4024;52.172;5.378;2024-02-26T03:58:54;10.13;;;8.60;;
7957;SDS011;4024;52.172;5.378;2024-02-26T04:01:20;9.73;;;8.70;;
7957;SDS011;4024;52.172;5.378;2024-02-26T04:03:46;10.53;;;8.87;;
7957;SDS011;4024;52.172;5.378;2024-02-26T04:06:11;9.77;;;8.53;;
7957;SDS011;4024;52.172;5.378;2024-02-26T04:08:41;10.63;;;8.70;;
7957;SDS011;4024;52.172;5.378;2024-02-26T04:11:07;10.63;;;8.27;;
7957;SDS011;4024;52.172;5.378;2024-02-26T04:13:35;10.63;;;8.70;;
7957;SDS011;4024;52.172;5.378;2024-02-26T04:16:03;12.67;;;9.97;;
7957;SDS011;4024;52.172;5.378;2024-02-26T04:18:29;9.70;;;8.70;;
7957;SDS011;4024;52.172;5.378;2024-02-26T04:20:55;11.90;;;8.90;;
7957;SDS011;4024;52.172;5.378;2024-02-26T04:23:21;10.70;;;9.60;;
7957;SDS011;4024;52.172;5.378;2024-02-26T04:25:47;12.13;;;9.50;;
7957;SDS011;4024;52.172;5.378;2024-02-26T04:28:13;11.17;;;9.47;;
7957;SDS011;4024;52.172;5.378;2024-02-26T04:30:38;15.07;;;10.53;;
7957;SDS011;4024;52.172;5.378;2024-02-26T04:33:04;10.70;;;9.37;;
7957;SDS011;4024;52.172;5.378;2024-02-26T04:35:30;12.80;;;10.40;;
7957;SDS011;4024;52.172;5.378;2024-02-26T04:37:56;11.60;;;9.23;;
7957;SDS011;4024;52.172;5.378;2024-02-26T04:40:22;10.63;;;9.50;;
7957;SDS011;4024;52.172;5.378;2024-02-26T04:42:47;11.13;;;9.90;;
7957;SDS011;4024;52.172;5.378;2024-02-26T04:45:13;14.63;;;11.10;;
7957;SDS011;4024;52.172;5.378;2024-02-26T04:47:38;13.03;;;10.13;;
7957;SDS011;4024;52.172;5.378;2024-02-26T04:50:04;11.83;;;10.13;;
7957;SDS011;4024;52.172;5.378;2024-02-26T04:52:30;11.60;;;10.40;;
7957;SDS011;4024;52.172;5.378;2024-02-26T04:54:56;11.73;;;9.90;;
7957;SDS011;4024;52.172;5.378;2024-02-26T04:57:21;12.60;;;10.77;;
7957;SDS011;4024;52.172;5.378;2024-02-26T04:59:47;11.97;;;10.27;;
7957;SDS011;4024;52.172;5.378;2024-02-26T05:02:13;12.47;;;10.13;;
7957;SDS011;4024;52.172;5.378;2024-02-26T05:04:39;12.17;;;10.30;;
7957;SDS011;4024;52.172;5.378;2024-02-26T05:07:04;15.77;;;10.73;;
7957;SDS011;4024;52.172;5.378;2024-02-26T05:09:30;12.23;;;10.20;;
7957;SDS011;4024;52.172;5.378;2024-02-26T05:11:56;11.47;;;10.23;;
7957;SDS011;4024;52.172;5.378;2024-02-26T05:14:22;13.07;;;11.23;;
7957;SDS011;4024;52.172;5.378;2024-02-26T05:16:48;13.57;;;10.77;;
7957;SDS011;4024;52.172;5.378;2024-02-26T05:19:13;11.30;;;10.10;;
7957;SDS011;4024;52.172;5.378;2024-02-26T05:21:39;12.53;;;10.53;;
7957;SDS011;4024;52.172;5.378;2024-02-26T05:24:05;11.83;;;10.63;;
7957;SDS011;4024;52.172;5.378;2024-02-26T05:26:31;12.17;;;10.33;;
7957;SDS011;4024;52.172;5.378;2024-02-26T05:28:57;12.50;;;10.83;;
7957;SDS011;4024;52.172;5.378;2024-02-26T05:31:24;11.67;;;10.47;;
7957;SDS011;4024;52.172;5.378;2024-02-26T05:33:51;13.83;;;10.63;;
7957;SDS011;4024;52.172;5.378;2024-02-26T05:36:20;14.23;;;10.83;;
7957;SDS011;4024;52.172;5.378;2024-02-26T05:38:47;13.87;;;11.27;;
7957;SDS011;4024;52.172;5.378;2024-02-26T05:41:16;12.70;;;11.07;;
7957;SDS011;4024;52.172;5.378;2024-02-26T05:43:48;12.73;;;11.20;;
7957;SDS011;4024;52.172;5.378;2024-02-26T05:46:17;13.03;;;10.87;;
7957;SDS011;4024;52.172;5.378;2024-02-26T05:48:43;12.73;;;11.13;;
7957;SDS011;4024;52.172;5.378;2024-02-26T05:51:12;13.60;;;11.33;;
7957;SDS011;4024;52.172;5.378;2024-02-26T05:53:38;16.13;;;11.90;;
7957;SDS011;4024;52.172;5.378;2024-02-26T05:56:03;14.27;;;11.20;;
7957;SDS011;4024;52.172;5.378;2024-02-26T05:58:29;16.00;;;12.13;;
7957;SDS011;4024;52.172;5.378;2024-02-26T06:00:54;15.73;;;11.70;;
7957;SDS011;4024;52.172;5.378;2024-02-26T06:03:20;16.60;;;11.80;;
7957;SDS011;4024;52.172;5.378;2024-02-26T06:05:46;15.07;;;11.67;;
7957;SDS011;4024;52.172;5.378;2024-02-26T06:08:11;15.70;;;11.80;;
7957;SDS011;4024;52.172;5.378;2024-02-26T06:10:37;17.33;;;13.03;;
7957;SDS011;4024;52.172;5.378;2024-02-26T06:13:04;18.67;;;13.73;;
7957;SDS011;4024;52.172;5.378;2024-02-26T06:15:29;17.10;;;12.90;;
7957;SDS011;4024;52.172;5.378;2024-02-26T06:17:55;16.87;;;12.50;;
7957;SDS011;4024;52.172;5.378;2024-02-26T06:20:21;14.90;;;12.50;;
7957;SDS011;4024;52.172;5.378;2024-02-26T06:22:46;16.80;;;12.87;;
7957;SDS011;4024;52.172;5.378;2024-02-26T06:25:12;20.70;;;12.90;;
7957;SDS011;4024;52.172;5.378;2024-02-26T06:27:38;17.97;;;13.63;;
7957;SDS011;4024;52.172;5.378;2024-02-26T06:30:03;17.20;;;12.67;;
7957;SDS011;4024;52.172;5.378;2024-02-26T06:32:29;17.87;;;13.00;;
7957;SDS011;4024;52.172;5.378;2024-02-26T06:34:55;17.90;;;13.40;;
7957;SDS011;4024;52.172;5.378;2024-02-26T06:37:21;17.40;;;13.40;;
7957;SDS011;4024;52.172;5.378;2024-02-26T06:39:47;18.53;;;13.80;;
7957;SDS011;4024;52.172;5.378;2024-02-26T06:42:13;19.03;;;14.33;;
7957;SDS011;4024;52.172;5.378;2024-02-26T06:44:38;18.93;;;14.30;;
7957;SDS011;4024;52.172;5.378;2024-02-26T06:47:05;20.40;;;14.83;;
7957;SDS011;4024;52.172;5.378;2024-02-26T06:49:30;20.87;;;15.80;;
7957;SDS011;4024;52.172;5.378;2024-02-26T06:51:56;22.87;;;16.17;;
7957;SDS011;4024;52.172;5.378;2024-02-26T06:54:22;24.63;;;18.20;;
7957;SDS011;4024;52.172;5.378;2024-02-26T06:56:47;27.00;;;18.23;;
7957;SDS011;4024;52.172;5.378;2024-02-26T06:59:13;28.20;;;19.03;;
7957;SDS011;4024;52.172;5.378;2024-02-26T07:01:42;29.03;;;20.10;;
7957;SDS011;4024;52.172;5.378;2024-02-26T07:04:08;29.77;;;20.37;;
7957;SDS011;4024;52.172;5.378;2024-02-26T07:06:35;28.07;;;19.30;;
7957;SDS011;4024;52.172;5.378;2024-02-26T07:09:01;30.23;;;20.50;;
7957;SDS011;4024;52.172;5.378;2024-02-26T07:11:26;30.67;;;21.17;;
7957;SDS011;4024;52.172;5.378;2024-02-26T07:13:52;28.87;;;21.10;;
7957;SDS011;4024;52.172;5.378;2024-02-26T07:16:17;32.10;;;22.43;;
7957;SDS011;4024;52.172;5.378;2024-02-26T07:18:43;32.50;;;22.00;;
7957;SDS011;4024;52.172;5.378;2024-02-26T07:21:09;29.33;;;21.67;;
7957;SDS011;4024;52.172;5.378;2024-02-26T07:23:34;32.10;;;23.33;;
7957;SDS011;4024;52.172;5.378;2024-02-26T07:26:00;33.97;;;23.23;;
7957;SDS011;4024;52.172;5.378;2024-02-26T07:28:25;32.43;;;23.47;;
7957;SDS011;4024;52.172;5.378;2024-02-26T07:30:51;34.07;;;24.00;;
7957;SDS011;4024;52.172;5.378;2024-02-26T07:33:17;31.77;;;23.83;;
7957;SDS011;4024;52.172;5.378;2024-02-26T07:35:42;31.33;;;23.37;;
7957;SDS011;4024;52.172;5.378;2024-02-26T07:38:08;30.07;;;22.17;;
7957;SDS011;4024;52.172;5.378;2024-02-26T07:40:33;31.97;;;22.67;;
7957;SDS011;4024;52.172;5.378;2024-02-26T07:42:59;31.10;;;22.57;;
7957;SDS011;4024;52.172;5.378;2024-02-26T07:45:25;28.60;;;22.00;;
7957;SDS011;4024;52.172;5.378;2024-02-26T07:47:50;30.43;;;22.53;;
7957;SDS011;4024;52.172;5.378;2024-02-26T07:50:16;27.27;;;21.37;;
7957;SDS011;4024;52.172;5.378;2024-02-26T07:52:43;27.07;;;20.77;;
7957;SDS011;4024;52.172;5.378;2024-02-26T07:55:09;26.87;;;19.53;;
7957;SDS011;4024;52.172;5.378;2024-02-26T07:57:35;24.03;;;18.27;;
7957;SDS011;4024;52.172;5.378;2024-02-26T08:00:02;24.33;;;18.13;;
7957;SDS011;4024;52.172;5.378;2024-02-26T08:02:28;20.60;;;15.30;;
7957;SDS011;4024;52.172;5.378;2024-02-26T08:04:54;20.50;;;15.90;;
7957;SDS011;4024;52.172;5.378;2024-02-26T08:07:19;18.93;;;15.30;;
7957;SDS011;4024;52.172;5.378;2024-02-26T08:09:46;20.93;;;15.67;;
7957;SDS011;4024;52.172;5.378;2024-02-26T08:12:12;18.53;;;15.30;;
7957;SDS011;4024;52.172;5.378;2024-02-26T08:14:37;19.33;;;14.30;;
7957;SDS011;4024;52.172;5.378;2024-02-26T08:17:03;14.83;;;13.13;;
7957;SDS011;4024;52.172;5.378;2024-02-26T08:19:29;15.03;;;12.70;;
7957;SDS011;4024;52.172;5.378;2024-02-26T08:21:54;16.37;;;13.27;;
7957;SDS011;4024;52.172;5.378;2024-02-26T08:24:20;16.17;;;11.70;;
7957;SDS011;4024;52.172;5.378;2024-02-26T08:26:45;17.30;;;12.07;;
7957;SDS011;4024;52.172;5.378;2024-02-26T08:29:11;14.30;;;11.60;;
7957;SDS011;4024;52.172;5.378;2024-02-26T08:31:37;14.63;;;12.23;;
7957;SDS011;4024;52.172;5.378;2024-02-26T08:34:03;15.80;;;12.23;;
7957;SDS011;4024;52.172;5.378;2024-02-26T08:36:29;16.40;;;13.23;;
7957;SDS011;4024;52.172;5.378;2024-02-26T08:38:56;12.83;;;11.07;;
7957;SDS011;4024;52.172;5.378;2024-02-26T08:41:22;12.83;;;11.23;;
7957;SDS011;4024;52.172;5.378;2024-02-26T08:43:48;16.60;;;11.93;;
7957;SDS011;4024;52.172;5.378;2024-02-26T08:46:13;13.80;;;10.77;;
7957;SDS011;4024;52.172;5.378;2024-02-26T08:48:39;16.13;;;11.77;;
7957;SDS011;4024;52.172;5.378;2024-02-26T08:51:08;14.67;;;10.83;;
7957;SDS011;4024;52.172;5.378;2024-02-26T08:53:35;12.63;;;10.90;;
7957;SDS011;4024;52.172;5.378;2024-02-26T08:56:01;13.63;;;10.90;;
7957;SDS011;4024;52.172;5.378;2024-02-26T08:58:27;12.97;;;10.63;;
7957;SDS011;4024;52.172;5.378;2024-02-26T09:00:53;13.80;;;10.53;;
7957;SDS011;4024;52.172;5.378;2024-02-26T09:03:19;11.10;;;9.67;;
7957;SDS011;4024;52.172;5.378;2024-02-26T09:05:44;11.00;;;9.07;;
7957;SDS011;4024;52.172;5.378;2024-02-26T09:08:10;15.13;;;10.70;;
7957;SDS011;4024;52.172;5.378;2024-02-26T09:10:36;12.00;;;9.13;;
7957;SDS011;4024;52.172;5.378;2024-02-26T09:13:01;11.63;;;9.20;;
7957;SDS011;4024;52.172;5.378;2024-02-26T09:15:27;11.53;;;9.27;;
7957;SDS011;4024;52.172;5.378;2024-02-26T09:17:53;12.60;;;9.77;;
7957;SDS011;4024;52.172;5.378;2024-02-26T09:20:18;10.90;;;9.00;;
7957;SDS011;4024;52.172;5.378;2024-02-26T09:22:45;11.00;;;9.53;;
7957;SDS011;4024;52.172;5.378;2024-02-26T09:25:12;12.60;;;9.43;;
7957;SDS011;4024;52.172;5.378;2024-02-26T09:27:38;11.47;;;8.40;;
7957;SDS011;4024;52.172;5.378;2024-02-26T09:30:04;10.97;;;8.53;;
7957;SDS011;4024;52.172;5.378;2024-02-26T09:32:30;9.57;;;8.57;;
7957;SDS011;4024;52.172;5.378;2024-02-26T09:34:56;10.13;;;8.43;;
7957;SDS011;4024;52.172;5.378;2024-02-26T09:37:21;9.77;;;8.23;;
7957;SDS011;4024;52.172;5.378;2024-02-26T09:39:47;10.13;;;7.93;;
7957;SDS011;4024;52.172;5.378;2024-02-26T09:42:12;9.23;;;7.87;;
7957;SDS011;4024;52.172;5.378;2024-02-26T09:44:39;10.53;;;8.00;;
7957;SDS011;4024;52.172;5.378;2024-02-26T09:47:07;9.30;;;7.37;;
7957;SDS011;4024;52.172;5.378;2024-02-26T09:49:36;11.37;;;8.07;;
7957;SDS011;4024;52.172;5.378;2024-02-26T09:52:03;9.90;;;7.93;;
7957;SDS011;4024;52.172;5.378;2024-02-26T09:54:30;9.17;;;8.20;;
7957;SDS011;4024;52.172;5.378;2024-02-26T09:56:59;10.67;;;8.93;;
7957;SDS011;4024;52.172;5.378;2024-02-26T09:59:27;10.57;;;8.10;;
7957;SDS011;4024;52.172;5.378;2024-02-26T10:01:54;10.37;;;8.40;;
7957;SDS011;4024;52.172;5.378;2024-02-26T10:04:22;9.67;;;7.67;;
7957;SDS011;4024;52.172;5.378;2024-02-26T10:06:49;10.97;;;7.73;;
7957;SDS011;4024;52.172;5.378;2024-02-26T10:09:16;9.93;;;8.23;;
7957;SDS011;4024;52.172;5.378;2024-02-26T10:11:42;10.07;;;8.30;;
7957;SDS011;4024;52.172;5.378;2024-02-26T10:14:08;9.53;;;8.03;;
7957;SDS011;4024;52.172;5.378;2024-02-26T10:16:34;11.87;;;8.50;;
7957;SDS011;4024;52.172;5.378;2024-02-26T10:19:00;9.60;;;7.97;;
7957;SDS011;4024;52.172;5.378;2024-02-26T10:21:26;8.90;;;7.67;;
7957;SDS011;4024;52.172;5.378;2024-02-26T10:23:51;11.17;;;8.17;;
7957;SDS011;4024;52.172;5.378;2024-02-26T10:26:17;9.03;;;7.83;;
7957;SDS011;4024;52.172;5.378;2024-02-26T10:28:43;9.37;;;7.70;;
7957;SDS011;4024;52.172;5.378;2024-02-26T10:31:09;8.87;;;7.53;;
7957;SDS011;4024;52.172;5.378;2024-02-26T10:33:36;9.47;;;8.03;;
7957;SDS011;4024;52.172;5.378;2024-02-26T10:36:03;9.87;;;7.90;;
7957;SDS011;4024;52.172;5.378;2024-02-26T10:38:30;9.93;;;7.73;;
7957;SDS011;4024;52.172;5.378;2024-02-26T10:40:57;9.20;;;8.07;;
7957;SDS011;4024;52.172;5.378;2024-02-26T10:43:22;9.00;;;7.97;;
7957;SDS011;4024;52.172;5.378;2024-02-26T10:45:48;9.20;;;7.33;;
7957;SDS011;4024;52.172;5.378;2024-02-26T10:48:14;9.30;;;7.47;;
7957;SDS011;4024;52.172;5.378;2024-02-26T10:50:40;9.00;;;8.10;;
7957;SDS011;4024;52.172;5.378;2024-02-26T10:56:02;9.97;;;7.83;;
7957;SDS011;4024;52.172;5.378;2024-02-26T10:58:29;8.57;;;7.67;;
7957;SDS011;4024;52.172;5.378;2024-02-26T11:00:56;9.03;;;8.00;;
7957;SDS011;4024;52.172;5.378;2024-02-26T11:03:22;8.93;;;7.63;;
7957;SDS011;4024;52.172;5.378;2024-02-26T11:05:49;10.97;;;8.00;;
7957;SDS011;4024;52.172;5.378;2024-02-26T11:08:16;10.30;;;8.47;;
7957;SDS011;4024;52.172;5.378;2024-02-26T11:10:44;9.23;;;7.87;;
7957;SDS011;4024;52.172;5.378;2024-02-26T11:13:14;9.67;;;8.67;;
7957;SDS011;4024;52.172;5.378;2024-02-26T11:15:42;9.10;;;8.07;;
7957;SDS011;4024;52.172;5.378;2024-02-26T11:18:09;10.20;;;8.80;;
7957;SDS011;4024;52.172;5.378;2024-02-26T11:20:38;9.67;;;7.90;;
7957;SDS011;4024;52.172;5.378;2024-02-26T11:23:05;10.20;;;8.03;;
7957;SDS011;4024;52.172;5.378;2024-02-26T11:25:33;9.93;;;8.10;;
7957;SDS011;4024;52.172;5.378;2024-02-26T11:28:01;8.50;;;7.70;;
7957;SDS011;4024;52.172;5.378;2024-02-26T11:30:35;8.97;;;7.93;;
7957;SDS011;4024;52.172;5.378;2024-02-26T11:33:06;10.33;;;8.90;;
7957;SDS011;4024;52.172;5.378;2024-02-26T11:35:37;9.60;;;8.40;;
7957;SDS011;4024;52.172;5.378;2024-02-26T11:38:04;11.60;;;8.47;;
7957;SDS011;4024;52.172;5.378;2024-02-26T11:40:31;10.47;;;8.47;;
7957;SDS011;4024;52.172;5.378;2024-02-26T11:42:57;9.57;;;8.03;;
7957;SDS011;4024;52.172;5.378;2024-02-26T11:48:04;12.53;;;9.43;;
7957;SDS011;4024;52.172;5.378;2024-02-26T11:50:41;10.97;;;8.67;;
7957;SDS011;4024;52.172;5.378;2024-02-26T11:58:44;10.40;;;8.37;;
7957;SDS011;4024;52.172;5.378;2024-02-26T12:04:25;10.10;;;7.80;;
7957;SDS011;4024;52.172;5.378;2024-02-26T12:06:55;12.10;;;9.40;;
7957;SDS011;4024;52.172;5.378;2024-02-26T12:09:31;10.53;;;8.67;;
7957;SDS011;4024;52.172;5.378;2024-02-26T12:11:57;9.37;;;8.37;;
7957;SDS011;4024;52.172;5.378;2024-02-26T12:14:26;10.20;;;8.07;;
7957;SDS011;4024;52.172;5.378;2024-02-26T12:16:52;8.77;;;7.43;;
7957;SDS011;4024;52.172;5.378;2024-02-26T12:19:18;10.20;;;8.30;;
7957;SDS011;4024;52.172;5.378;2024-02-26T12:21:44;11.53;;;8.43;;
7957;SDS011;4024;52.172;5.378;2024-02-26T12:24:10;10.10;;;8.33;;
7957;SDS011;4024;52.172;5.378;2024-02-26T12:26:37;9.80;;;8.80;;
7957;SDS011;4024;52.172;5.378;2024-02-26T12:29:03;9.10;;;8.13;;
7957;SDS011;4024;52.172;5.378;2024-02-26T12:31:29;10.27;;;7.90;;
7957;SDS011;4024;52.172;5.378;2024-02-26T12:33:56;10.50;;;8.10;;
7957;SDS011;4024;52.172;5.378;2024-02-26T12:36:22;10.23;;;7.87;;
7957;SDS011;4024;52.172;5.378;2024-02-26T12:38:48;11.10;;;7.63;;
7957;SDS011;4024;52.172;5.378;2024-02-26T12:41:17;9.47;;;7.70;;
7957;SDS011;4024;52.172;5.378;2024-02-26T12:43:42;9.27;;;7.93;;
7957;SDS011;4024;52.172;5.378;2024-02-26T12:46:08;9.83;;;7.73;;
7957;SDS011;4024;52.172;5.378;2024-02-26T12:48:35;9.10;;;7.87;;
7957;SDS011;4024;52.172;5.378;2024-02-26T12:51:01;11.30;;;7.83;;
7957;SDS011;4024;52.172;5.378;2024-02-26T12:53:27;8.93;;;7.47;;
7957;SDS011;4024;52.172;5.378;2024-02-26T12:55:56;9.40;;;7.30;;
7957;SDS011;4024;52.172;5.378;2024-02-26T12:58:21;9.10;;;7.20;;
7957;SDS011;4024;52.172;5.378;2024-02-26T13:00:52;8.67;;;7.60;;
7957;SDS011;4024;52.172;5.378;2024-02-26T13:03:19;8.67;;;7.57;;
7957;SDS011;4024;52.172;5.378;2024-02-26T13:05:46;9.43;;;7.43;;
7957;SDS011;4024;52.172;5.378;2024-02-26T13:08:18;7.63;;;6.83;;
7957;SDS011;4024;52.172;5.378;2024-02-26T13:10:45;7.97;;;7.17;;
7957;SDS011;4024;52.172;5.378;2024-02-26T13:13:14;9.40;;;7.53;;
7957;SDS011;4024;52.172;5.378;2024-02-26T13:15:41;8.87;;;7.87;;
7957;SDS011;4024;52.172;5.378;2024-02-26T13:18:10;9.80;;;8.43;;
7957;SDS011;4024;52.172;5.378;2024-02-26T13:20:37;9.90;;;7.70;;
7957;SDS011;4024;52.172;5.378;2024-02-26T13:23:05;8.40;;;6.80;;
7957;SDS011;4024;52.172;5.378;2024-02-26T13:25:32;7.70;;;6.90;;
7957;SDS011;4024;52.172;5.378;2024-02-26T13:28:08;8.57;;;6.93;;
7957;SDS011;4024;52.172;5.378;2024-02-26T13:30:35;8.63;;;6.70;;
7957;SDS011;4024;52.172;5.378;2024-02-26T13:33:12;7.57;;;6.77;;
7957;SDS011;4024;52.172;5.378;2024-02-26T13:35:38;8.57;;;7.10;;
7957;SDS011;4024;52.172;5.378;2024-02-26T13:38:04;8.97;;;7.40;;
7957;SDS011;4024;52.172;5.378;2024-02-26T13:40:33;7.80;;;7.00;;
7957;SDS011;4024;52.172;5.378;2024-02-26T13:43:00;7.80;;;6.87;;
7957;SDS011;4024;52.172;5.378;2024-02-26T13:45:26;8.70;;;7.00;;
7957;SDS011;4024;52.172;5.378;2024-02-26T13:47:52;7.70;;;6.80;;
7957;SDS011;4024;52.172;5.378;2024-02-26T13:50:18;7.43;;;6.40;;
7957;SDS011;4024;52.172;5.378;2024-02-26T13:52:46;7.10;;;6.40;;
7957;SDS011;4024;52.172;5.378;2024-02-26T13:55:18;9.03;;;6.47;;
7957;SDS011;4024;52.172;5.378;2024-02-26T13:57:44;7.27;;;6.13;;
7957;SDS011;4024;52.172;5.378;2024-02-26T14:00:10;8.33;;;6.37;;
7957;SDS011;4024;52.172;5.378;2024-02-26T14:02:36;6.40;;;5.70;;
7957;SDS011;4024;52.172;5.378;2024-02-26T14:05:01;6.00;;;5.40;;
7957;SDS011;4024;52.172;5.378;2024-02-26T14:07:30;6.40;;;5.80;;
7957;SDS011;4024;52.172;5.378;2024-02-26T14:09:59;6.60;;;5.90;;
7957;SDS011;4024;52.172;5.378;2024-02-26T14:12:24;7.67;;;5.53;;
7957;SDS011;4024;52.172;5.378;2024-02-26T14:14:50;5.77;;;5.07;;
7957;SDS011;4024;52.172;5.378;2024-02-26T14:17:18;6.80;;;5.70;;
7957;SDS011;4024;52.172;5.378;2024-02-26T14:19:44;7.27;;;5.70;;
7957;SDS011;4024;52.172;5.378;2024-02-26T14:22:13;6.70;;;5.47;;
7957;SDS011;4024;52.172;5.378;2024-02-26T14:24:41;6.70;;;5.87;;
7957;SDS011;4024;52.172;5.378;2024-02-26T14:27:10;6.00;;;5.40;;
7957;SDS011;4024;52.172;5.378;2024-02-26T14:29:41;5.63;;;5.13;;
7957;SDS011;4024;52.172;5.378;2024-02-26T14:32:08;5.83;;;5.10;;
7957;SDS011;4024;52.172;5.378;2024-02-26T14:34:34;6.07;;;5.47;;
7957;SDS011;4024;52.172;5.378;2024-02-26T14:37:00;5.80;;;5.20;;
7957;SDS011;4024;52.172;5.378;2024-02-26T14:39:26;5.43;;;4.93;;
7957;SDS011;4024;52.172;5.378;2024-02-26T14:41:52;5.37;;;4.80;;
7957;SDS011;4024;52.172;5.378;2024-02-26T14:44:18;5.73;;;4.70;;
7957;SDS011;4024;52.172;5.378;2024-02-26T14:46:43;6.83;;;5.23;;
7957;SDS011;4024;52.172;5.378;2024-02-26T14:49:09;5.27;;;4.77;;
7957;SDS011;4024;52.172;5.378;2024-02-26T14:51:36;5.13;;;4.33;;
7957;SDS011;4024;52.172;5.378;2024-02-26T14:54:02;5.40;;;4.90;;
7957;SDS011;4024;52.172;5.378;2024-02-26T14:56:27;5.07;;;4.57;;
7957;SDS011;4024;52.172;5.378;2024-02-26T14:58:53;6.53;;;4.87;;
7957;SDS011;4024;52.172;5.378;2024-02-26T15:01:18;7.40;;;4.67;;
7957;SDS011;4024;52.172;5.378;2024-02-26T15:03:44;5.10;;;4.60;;
7957;SDS011;4024;52.172;5.378;2024-02-26T15:06:10;5.43;;;4.57;;
7957;SDS011;4024;52.172;5.378;2024-02-26T15:08:35;5.40;;;4.77;;
7957;SDS011;4024;52.172;5.378;2024-02-26T15:11:02;4.90;;;4.43;;
7957;SDS011;4024;52.172;5.378;2024-02-26T15:13:28;5.77;;;4.90;;
7957;SDS011;4024;52.172;5.378;2024-02-26T15:15:54;5.90;;;4.70;;